Shimanami Star — C6VN9 — position and weather

sailwx.info

Track history (hours):
 
Tides and Currents Weather Stations Pressure Air Temp Water Temp Dewpoint Dewpoint Depression Visibility Wind Speed Wind Dir Waves Ship Positions

Shimanami Star

Last reported at 2014-Dec-18 12:10 UTC. Time now 2014-Dec-18 13:28 UTC.
Position N 36°59' E 023°43'.

Length 170 m; draft 9.7 m.

Type: Cargo ship. MMSI: 309116000.

Date/timePositionNaut miles runAvg speedWind from/ knotsBaromVisibWave heightAir tempDewpointWater temp
2014-Dec-18 12:10N 36°59' E 023°43'46111.0
2014-Dec-16 18:18N 36°26' E 014°10'911.9
2014-Dec-16 17:33N 36°30' E 013°59'  
2014-Dec-13 13:33N 36°01' W 005°16'8 7.8
2014-Dec-13 12:30N 36°08' W 005°22'0 0.0
2014-Dec-13 11:33N 36°08' W 005°22'0 0.1
2014-Dec-13 10:27N 36°08' W 005°22'0 0.0
2014-Dec-13 09:33N 36°08' W 005°22'0 0.0
2014-Dec-13 08:30N 36°08' W 005°22'0 0.1
2014-Dec-13 07:18N 36°08' W 005°22'0 0.0
2014-Dec-13 05:28N 36°08' W 005°22'3 3.7
2014-Dec-13 04:33N 36°05' W 005°19'9 2.2
2014-Dec-13 00:12N 36°07' W 005°08'1 0.6
2014-Dec-12 22:08N 36°07' W 005°09'5 8.2
2014-Dec-12 21:33N 36°03' W 005°13'1110.6
2014-Dec-12 20:33N 35°58' W 005°25'  
Track history (hours):
 
Tides and Currents Weather Stations Pressure Air Temp Water Temp Dewpoint Dewpoint Depression Visibility Wind Speed Wind Dir Waves Ship Positions

Shimanami Star

Last reported at 2014-Dec-18 12:10 UTC. Time now 2014-Dec-18 13:28 UTC.
Position N 36°59' E 023°43'.

Length 170 m; draft 9.7 m.

Type: Cargo ship. MMSI: 309116000.

Date/timePositionNaut miles runAvg speedWind from/ knotsBaromVisibWave heightAir tempDewpointWater temp
2014-Dec-18 12:10N 36°59' E 023°43'46111.0
2014-Dec-16 18:18N 36°26' E 014°10'911.9
2014-Dec-16 17:33N 36°30' E 013°59'  
2014-Dec-13 13:33N 36°01' W 005°16'8 7.8
2014-Dec-13 12:30N 36°08' W 005°22'0 0.0
2014-Dec-13 11:33N 36°08' W 005°22'0 0.1
2014-Dec-13 10:27N 36°08' W 005°22'0 0.0
2014-Dec-13 09:33N 36°08' W 005°22'0 0.0
2014-Dec-13 08:30N 36°08' W 005°22'0 0.1
2014-Dec-13 07:18N 36°08' W 005°22'0 0.0
2014-Dec-13 05:28N 36°08' W 005°22'3 3.7
2014-Dec-13 04:33N 36°05' W 005°19'9 2.2
2014-Dec-13 00:12N 36°07' W 005°08'1 0.6
2014-Dec-12 22:08N 36°07' W 005°09'5 8.2
2014-Dec-12 21:33N 36°03' W 005°13'1110.6
2014-Dec-12 20:33N 35°58' W 005°25'  

Dump ship's entire track history